Summerville, OR (97876)

12:57 AM PDT on July 29, 2016 (GMT -0700)
Summerville | | Change Station
Active Advisory: Fire Weather Watch

Elev 3291 ft 45.54 °N, 118.08 °W | Updated 6 minutes ago

Clear
Clear
65.8 °F
Feels Like 65.8 °F
N
2.2
Wind Variable Wind from NNW

Today
High -- | Low -- °F
--% Chance of Precip.
Yesterday
High -- | Low -- °F
Precip. -- in
Pressure 30.02 in
Visibility 10.0 miles
Clouds Clear
Dew Point 48 °F
Humidity 52%
Rainfall 0.00 in
Snow Depth Not available.
5:33 AM 8:23 PM
Waning Crescent, 24% visible
METAR KLGD 290755Z AUTO 33008KT 10SM CLR 22/07 A3002 RMK AO1
Pressure 30.02 in
Visibility 10.0 miles
Clouds Clear
Dew Point 48 °F
Humidity 52%
Rainfall 0.00 in
Snow Depth Not available.
5:33 AM 8:23 PM
Waning Crescent, 24% visible
METAR KLGD 290755Z AUTO 33008KT 10SM CLR 22/07 A3002 RMK AO1

10-Day Weather Forecast

Almanac

Astronomy

Jul. 29, 2016 Rise Set
Actual Time
Civil Twilight
Nautical Twilight
Astronomical Twilight
Moon
Length of Visible Light
Length of Day
Tomorrow will be .
, % of the Moon is Illuminated

Today's Extremes

State Highs State Lows

Community

WunderPhotos

Upload Photos

1,928,300 photos uploaded!

WunderBlog® & News

Nearby

Air Quality

  Air Quality AQ Index Pollutant
Not available.

Snow Depth

Station Depth Elevation

Earthquake Activity

City Distance Mag. Time & Date
Minimum magnitude displayed is 2.5.

Coastal Water Temperatures

Place Temperature

Stations

Nearby Weather Stations

Station Location Temp. Windchill Dew Point Humidity Wind Precip. Elev Updated Type
                   

Watches & Warnings

Fire Weather Watch
Issued: 3:59 PM PDT Jul. 28, 2016 – National Weather Service

... Fire Weather Watch in effect from Saturday afternoon through
Sunday evening for gusty winds and low humidity...

The National Weather Service in Pendleton has issued a Fire
Weather Watch... which is in effect from Saturday afternoon
through Sunday evening.

* Affected area... in Oregon... fire zone 640 covering central
Oregon and fire zone 644 covering the central Oregon
mountains... the northern portion of the John Day basin and the
Grande Ronde Valley.

* Timing... winds will increase late Saturday afternoon and evening
and will remain breezy on Sunday.

* Wind... west to northwest wind 10 to 20 mph.

* Humidity... 10 to 15 percent.

* Impacts... any fires that develop will likely spread rapidly.
Outdoor burning is not recommended.

Precautionary/preparedness actions...

A Fire Weather Watch means that critical fire weather conditions
are forecast to occur. Listen for later forecasts and possible
red flag warnings.